Time;durP1;ratioP1;P1;durP2;ratioP2;P2;SDS_P1;SDS_P2;PMS_P1;PMS_P2;Temp;Humidity;BMP_temperature;BMP_pressure;BME280_temperature;BME280_humidity;BME280_pressure;Samples;Min_cycle;Max_cycle;Signal;HPM_P1;HPM_P2
2021/10/03 00:00:31;;;;;;;23.23;20.87;;;;;;;14.13;72.21;99302.34;5066478;28;20228;-79
2021/10/03 00:03:00;;;;;;;23.27;20.80;;;;;;;14.22;72.12;99296.25;5049462;28;20616;-81
2021/10/03 00:05:31;;;;;;;22.13;19.93;;;;;;;14.26;72.31;99302.78;5065513;28;20221;-81
2021/10/03 00:08:02;;;;;;;23.00;20.60;;;;;;;14.23;72.09;99295.19;5072963;23;20261;-82
2021/10/03 00:10:31;;;;;;;21.53;18.93;;;;;;;14.07;71.97;99288.00;5032629;28;20227;-81
2021/10/03 00:13:04;;;;;;;20.90;18.30;;;;;;;13.96;71.90;99297.00;5066734;28;20214;-82
2021/10/03 00:15:34;;;;;;;20.50;18.40;;;;;;;13.83;72.29;99298.19;5064316;28;20642;-80
2021/10/03 00:18:02;;;;;;;21.30;18.87;;;;;;;13.75;72.54;99301.31;5031563;28;20239;-79
2021/10/03 00:20:32;;;;;;;21.93;18.77;;;;;;;13.59;73.45;99292.19;5049908;28;20229;-79
2021/10/03 00:22:59;;;;;;;21.33;19.13;;;;;;;13.52;73.37;99282.66;5067149;28;20232;-79
2021/10/03 00:25:29;;;;;;;20.63;18.50;;;;;;;13.38;73.69;99290.25;5049805;28;20237;-79
2021/10/03 00:28:07;;;;;;;21.20;19.03;;;;;;;13.32;74.07;99276.97;5066178;28;20231;-79
2021/10/03 00:30:41;;;;;;;23.57;21.13;;;;;;;13.16;74.79;99278.59;5074930;23;20236;-79
2021/10/03 00:33:09;;;;;;;24.17;21.40;;;;;;;13.19;75.73;99273.56;5066926;28;20207;-79
2021/10/03 00:35:41;;;;;;;26.87;23.07;;;;;;;13.25;76.55;99257.50;5067161;28;20221;-79
2021/10/03 00:38:11;;;;;;;26.60;23.67;;;;;;;13.40;76.57;99263.09;5074232;23;20283;-79
2021/10/03 00:40:42;;;;;;;26.23;23.40;;;;;;;13.45;76.50;99266.69;5049327;28;20320;-78
2021/10/03 00:43:09;;;;;;;25.67;23.07;;;;;;;13.53;77.09;99257.38;5049874;28;20225;-81
2021/10/03 00:45:37;;;;;;;27.57;24.57;;;;;;;13.51;76.76;99238.78;5048324;28;20229;-81
2021/10/03 00:48:08;;;;;;;26.47;23.27;;;;;;;13.83;75.25;99252.41;5072847;23;20222;-81
2021/10/03 00:50:41;;;;;;;26.13;23.33;;;;;;;13.77;75.66;99245.31;5065802;28;20230;-81
2021/10/03 00:53:11;;;;;;;26.80;24.00;;;;;;;13.83;75.84;99260.47;5067234;28;20224;-81
2021/10/03 00:55:40;;;;;;;26.73;23.83;;;;;;;13.89;74.89;99256.78;5066315;28;20206;-81
2021/10/03 00:58:08;;;;;;;24.33;21.73;;;;;;;13.98;75.06;99249.09;5065117;28;20320;-81
2021/10/03 01:00:39;;;;;;;25.60;22.77;;;;;;;14.06;74.48;99248.63;5036234;28;20278;-81
2021/10/03 01:03:07;;;;;;;26.13;23.33;;;;;;;13.93;74.79;99236.38;5068849;28;20233;-81
2021/10/03 01:05:35;;;;;;;26.93;22.67;;;;;;;14.05;74.50;99252.41;5054076;28;20252;-81
2021/10/03 01:08:05;;;;;;;26.20;23.43;;;;;;;13.97;74.82;99234.81;5052639;28;20656;-81
2021/10/03 01:10:36;;;;;;;26.07;23.37;;;;;;;14.00;74.17;99245.06;5052733;28;20680;-82
2021/10/03 01:13:08;;;;;;;25.80;23.20;;;;;;;14.15;74.07;99240.94;5052196;28;20205;-81
2021/10/03 01:15:40;;;;;;;27.20;23.63;;;;;;;14.17;73.92;99241.50;5037015;28;20248;-81
2021/10/03 01:18:07;;;;;;;26.40;23.60;;;;;;;14.06;74.07;99229.78;5069735;28;20241;-81
2021/10/03 01:20:38;;;;;;;25.50;22.77;;;;;;;14.12;73.93;99239.56;5069457;28;20308;-81
2021/10/03 01:23:09;;;;;;;26.17;23.37;;;;;;;14.17;73.59;99231.53;5068904;28;20188;-81
2021/10/03 01:26:00;;;;;;;26.17;23.27;;;;;;;14.16;73.75;99237.19;5069140;28;20298;-81
2021/10/03 01:28:29;;;;;;;27.70;22.63;;;;;;;14.17;73.96;99236.13;5068451;28;20194;-81
2021/10/03 01:30:57;;;;;;;24.77;22.17;;;;;;;14.15;73.91;99235.53;5068044;28;20308;-81
2021/10/03 01:33:31;;;;;;;25.27;22.53;;;;;;;13.99;73.80;99231.88;5075169;23;20225;-81
2021/10/03 01:35:58;;;;;;;24.70;22.20;;;;;;;13.83;73.33;99227.34;5068246;28;20218;-81
2021/10/03 01:38:25;;;;;;;25.43;22.77;;;;;;;13.77;73.72;99225.66;5035919;28;20248;-81
2021/10/03 01:40:52;;;;;;;26.40;23.53;;;;;;;13.61;74.41;99228.16;5054125;28;20187;-81
2021/10/03 01:43:21;;;;;;;25.23;22.53;;;;;;;13.46;75.17;99229.81;5051738;28;20225;-81
2021/10/03 01:45:52;;;;;;;26.93;23.60;;;;;;;13.44;75.25;99224.66;5068855;28;20229;-81
2021/10/03 01:48:42;;;;;;;25.63;22.97;;;;;;;13.22;75.07;99203.13;5055528;28;20221;-81
2021/10/03 01:51:11;;;;;;;28.73;22.70;;;;;;;13.30;75.53;99217.22;5068792;28;20260;-81
2021/10/03 01:53:54;;;;;;;26.73;23.40;;;;;;;13.21;76.02;99222.19;5052220;28;20260;-81
2021/10/03 01:56:31;;;;;;;26.73;24.00;;;;;;;13.09;76.05;99219.56;5050545;28;20239;-81
2021/10/03 01:59:02;;;;;;;30.07;23.40;;;;;;;13.06;76.33;99197.75;5068079;28;20197;-81
2021/10/03 02:01:44;;;;;;;25.03;22.43;;;;;;;13.10;76.58;99207.75;5069127;28;20189;-81
2021/10/03 02:04:16;;;;;;;28.03;23.07;;;;;;;12.76;77.44;99190.00;5069601;28;20225;-81
2021/10/03 02:07:03;;;;;;;27.13;23.00;;;;;;;12.79;76.95;99206.44;5051153;28;20233;-82
2021/10/03 02:09:30;;;;;;;26.63;23.83;;;;;;;12.78;77.66;99201.34;5034528;28;20229;-80
2021/10/03 02:12:03;;;;;;;27.53;23.90;;;;;;;12.81;77.23;99203.53;5034153;28;20218;-81
2021/10/03 02:14:32;;;;;;;26.33;22.90;;;;;;;12.68;77.77;99190.41;5069802;28;20647;-81
2021/10/03 02:17:01;;;;;;;27.43;23.80;;;;;;;12.66;77.73;99187.13;5051979;28;20233;-82
2021/10/03 02:19:33;;;;;;;26.47;23.47;;;;;;;12.57;78.29;99175.97;5068252;28;20233;-81
2021/10/03 02:22:18;;;;;;;27.03;24.10;;;;;;;12.55;77.93;99182.66;5068355;28;20288;-81
2021/10/03 02:24:46;;;;;;;26.80;23.90;;;;;;;12.52;78.38;99170.50;5049773;23;20228;-81
2021/10/03 02:27:32;;;;;;;26.73;23.77;;;;;;;12.62;78.36;99177.94;5049387;28;20558;-81
2021/10/03 02:30:01;;;;;;;28.27;23.87;;;;;;;12.51;78.46;99173.44;5049145;28;20229;-81
2021/10/03 02:32:31;;;;;;;27.70;24.37;;;;;;;12.53;78.53;99174.03;5030994;28;20237;-82
2021/10/03 02:35:01;;;;;;;27.87;24.87;;;;;;;12.27;79.19;99151.28;5046721;28;20218;-81
2021/10/03 02:37:31;;;;;;;26.93;24.07;;;;;;;12.32;79.39;99165.59;5049235;28;20193;-80
2021/10/03 02:39:58;;;;;;;29.97;24.13;;;;;;;12.24;79.31;99144.50;5063760;22;20268;-81
2021/10/03 02:42:27;;;;;;;28.27;23.93;;;;;;;12.39;79.34;99168.16;5031230;23;20293;-81
2021/10/03 02:44:57;;;;;;;28.30;25.20;;;;;;;12.29;79.51;99159.91;5027868;28;20282;-81
2021/10/03 02:47:24;;;;;;;27.33;24.47;;;;;;;12.20;80.31;99159.47;5028603;28;20227;-81
2021/10/03 02:49:51;;;;;;;28.10;24.70;;;;;;;12.24;80.75;99163.31;5014107;28;20294;-81
2021/10/03 02:52:20;;;;;;;29.20;25.60;;;;;;;12.26;80.66;99155.84;5035644;23;20234;-81
2021/10/03 02:54:53;;;;;;;29.03;25.03;;;;;;;12.25;79.94;99158.75;4995285;28;20286;-81
2021/10/03 02:57:22;;;;;;;30.43;25.87;;;;;;;12.32;80.77;99164.78;4994519;28;20521;-81
2021/10/03 02:59:58;;;;;;;28.43;25.17;;;;;;;12.21;80.65;99157.63;5012448;28;20230;-81
2021/10/03 03:02:28;;;;;;;28.73;25.67;;;;;;;12.06;81.13;99160.84;4996780;28;20238;-81
2021/10/03 03:04:56;;;;;;;30.60;26.53;;;;;;;12.06;80.42;99152.78;5011111;28;20226;-81
2021/10/03 03:07:38;;;;;;;28.20;25.07;;;;;;;12.24;80.50;99168.69;5025517;23;20225;-81
2021/10/03 03:10:15;;;;;;;28.10;24.83;;;;;;;12.21;80.64;99163.81;5027914;28;20533;-81
2021/10/03 03:12:42;;;;;;;30.73;26.03;;;;;;;12.10;81.03;99158.47;5026842;28;20233;-81
2021/10/03 03:15:10;;;;;;;31.30;25.63;;;;;;;12.09;80.92;99159.53;5043432;28;20198;-81
2021/10/03 03:17:43;;;;;;;29.40;26.27;;;;;;;12.04;81.48;99148.72;5009930;28;20223;-81
2021/10/03 03:20:10;;;;;;;31.97;26.00;;;;;;;12.00;81.50;99156.41;5011025;28;20226;-81
2021/10/03 03:22:38;;;;;;;29.10;25.83;;;;;;;12.05;81.85;99163.75;5041507;28;20225;-81
2021/10/03 03:25:08;;;;;;;33.30;26.03;;;;;;;12.02;81.12;99145.44;5025442;23;20222;-81
2021/10/03 03:27:36;;;;;;;31.50;26.77;;;;;;;11.95;81.64;99152.81;5014169;28;20272;-81
2021/10/03 03:30:12;;;;;;;31.03;26.33;;;;;;;11.92;81.89;99162.19;5047930;28;20233;-81
2021/10/03 03:32:41;;;;;;;30.97;27.17;;;;;;;11.88;82.13;99164.53;4997233;23;20509;-81
2021/10/03 03:35:10;;;;;;;30.73;26.33;;;;;;;11.87;82.30;99164.75;4971100;28;20232;-80
2021/10/03 03:37:37;;;;;;;32.30;26.93;;;;;;;11.75;82.56;99155.94;4970132;28;20232;-81
2021/10/03 03:40:11;;;;;;;31.27;26.97;;;;;;;11.86;82.41;99165.81;4987604;28;20216;-81
2021/10/03 03:42:42;;;;;;;30.73;25.83;;;;;;;11.83;82.33;99156.38;4987599;28;20235;-81
2021/10/03 03:45:17;;;;;;;32.53;27.37;;;;;;;11.82;82.68;99164.66;4987027;28;20235;-81
2021/10/03 03:47:44;;;;;;;30.93;26.33;;;;;;;11.75;82.73;99159.44;4975248;28;20320;-81
2021/10/03 03:50:14;;;;;;;31.10;26.10;;;;;;;11.75;83.20;99158.63;4981516;28;20628;-81
2021/10/03 03:52:42;;;;;;;32.20;27.13;;;;;;;11.70;82.87;99148.56;4987142;28;20234;-81
2021/10/03 03:55:09;;;;;;;32.20;26.67;;;;;;;11.66;83.28;99150.13;5001727;28;20240;-81
2021/10/03 03:57:38;;;;;;;32.53;27.80;;;;;;;11.64;83.24;99154.88;4985219;28;20224;-81
2021/10/03 04:00:12;;;;;;;33.30;28.23;;;;;;;11.52;83.58;99151.44;4986076;28;20216;-81
2021/10/03 04:02:41;;;;;;;31.93;27.47;;;;;;;11.49;83.44;99147.34;4984547;28;20234;-81
2021/10/03 04:05:11;;;;;;;32.93;27.47;;;;;;;11.69;83.24;99155.00;4985539;28;20318;-81
2021/10/03 04:07:41;;;;;;;33.67;26.87;;;;;;;11.59;83.32;99145.91;5001507;28;20244;-82
2021/10/03 04:10:09;;;;;;;34.80;28.37;;;;;;;11.56;83.44;99149.91;4984980;28;20322;-81
2021/10/03 04:12:38;;;;;;;33.20;28.00;;;;;;;11.44;83.78;99152.59;5001272;28;20224;-81
2021/10/03 04:15:08;;;;;;;32.90;28.47;;;;;;;11.49;83.84;99163.44;5002643;28;20256;-81
2021/10/03 04:17:38;;;;;;;35.07;28.93;;;;;;;11.48;83.68;99169.84;4986350;28;20195;-81
2021/10/03 04:20:08;;;;;;;35.57;28.37;;;;;;;11.46;83.83;99166.59;5005821;23;20585;-81
2021/10/03 04:22:37;;;;;;;34.77;28.23;;;;;;;11.47;83.55;99165.56;5054676;23;20243;-80
2021/10/03 04:25:06;;;;;;;35.10;28.63;;;;;;;11.37;84.34;99159.97;5029643;28;20233;-81
2021/10/03 04:27:35;;;;;;;32.87;28.87;;;;;;;11.35;84.17;99163.94;5045920;28;20274;-81
2021/10/03 04:30:05;;;;;;;33.40;28.07;;;;;;;11.44;84.11;99175.91;5028817;28;20290;-81
2021/10/03 04:32:34;;;;;;;34.47;28.57;;;;;;;11.35;84.18;99166.59;5084167;23;20315;-81
2021/10/03 04:35:03;;;;;;;35.87;28.73;;;;;;;11.32;84.16;99170.59;5060013;23;20282;-81
2021/10/03 04:37:32;;;;;;;34.30;29.10;;;;;;;11.18;84.60;99161.16;5072167;28;20290;-81
2021/10/03 04:39:59;;;;;;;31.60;28.10;;;;;;;11.25;84.38;99166.38;5056696;28;20296;-81
2021/10/03 04:42:25;;;;;;;32.27;27.63;;;;;;;11.22;84.50;99170.34;5063130;28;20521;-81
2021/10/03 04:44:52;;;;;;;34.63;28.87;;;;;;;11.16;85.09;99171.28;5052497;28;20232;-81
2021/10/03 04:47:21;;;;;;;33.70;28.27;;;;;;;11.15;85.00;99158.94;5056560;28;20220;-81
2021/10/03 04:49:56;;;;;;;33.40;28.90;;;;;;;11.21;84.34;99171.41;5090092;28;20220;-81
2021/10/03 04:52:29;;;;;;;35.37;29.67;;;;;;;11.11;85.12;99162.31;5090694;28;20224;-81
2021/10/03 04:54:57;;;;;;;37.17;29.17;;;;;;;11.07;85.05;99153.09;5077709;23;20199;-80
2021/10/03 04:57:24;;;;;;;33.53;28.10;;;;;;;11.03;85.47;99158.13;5054532;23;20517;-81
2021/10/03 04:59:51;;;;;;;33.70;28.50;;;;;;;11.03;85.56;99168.84;5053850;28;20201;-81
2021/10/03 05:02:18;;;;;;;35.00;28.97;;;;;;;11.00;85.69;99163.97;5041779;23;20232;-81
2021/10/03 05:04:45;;;;;;;37.30;29.30;;;;;;;10.97;85.69;99159.06;5035349;28;20225;-81
2021/10/03 05:07:13;;;;;;;35.47;29.63;;;;;;;11.06;85.32;99163.00;5036711;28;20538;-80
2021/10/03 05:09:40;;;;;;;35.93;29.30;;;;;;;11.13;85.01;99162.91;5052226;28;20229;-81
2021/10/03 05:12:09;;;;;;;35.63;29.07;;;;;;;11.16;85.25;99179.34;5052398;28;20185;-81
2021/10/03 05:14:36;;;;;;;35.93;29.90;;;;;;;11.19;85.33;99178.88;5019834;28;20221;-81
2021/10/03 05:17:07;;;;;;;37.93;30.40;;;;;;;11.19;85.28;99167.34;5052562;28;20213;-81
2021/10/03 05:19:36;;;;;;;35.90;29.60;;;;;;;11.22;85.17;99182.94;5053666;28;20261;-81
2021/10/03 05:22:06;;;;;;;36.67;28.93;;;;;;;11.27;84.97;99175.03;5056203;23;20233;-80
2021/10/03 05:24:33;;;;;;;37.00;30.77;;;;;;;11.37;85.28;99173.38;5036070;28;20232;-81
2021/10/03 05:27:07;;;;;;;36.53;30.30;;;;;;;11.45;84.80;99181.06;5068521;28;20229;-81
2021/10/03 05:29:37;;;;;;;34.23;28.00;;;;;;;11.52;84.57;99172.06;5051202;28;20229;-81
2021/10/03 05:32:09;;;;;;;36.47;28.87;;;;;;;11.62;84.47;99181.13;5068742;28;20227;-81
2021/10/03 05:34:37;;;;;;;36.27;28.37;;;;;;;11.62;84.24;99172.28;5049700;28;20616;-81
2021/10/03 05:37:08;;;;;;;35.40;28.37;;;;;;;11.67;84.48;99162.44;5034331;28;20221;-81
2021/10/03 05:39:39;;;;;;;31.13;27.60;;;;;;;11.83;84.25;99161.75;5068287;28;20676;-81
2021/10/03 05:42:06;;;;;;;32.27;28.10;;;;;;;11.89;83.64;99163.47;5068009;28;20201;-81
2021/10/03 05:44:35;;;;;;;34.57;28.67;;;;;;;12.02;83.06;99183.03;5057008;23;20233;-80
2021/10/03 05:47:02;;;;;;;35.60;28.90;;;;;;;12.09;83.27;99175.63;5035353;23;20322;-81
2021/10/03 05:49:31;;;;;;;32.33;28.63;;;;;;;12.17;82.49;99168.03;5048996;28;20234;-81
2021/10/03 05:52:06;;;;;;;33.27;28.23;;;;;;;12.29;82.56;99176.03;5048977;28;20234;-81
2021/10/03 05:54:36;;;;;;;33.57;27.77;;;;;;;12.45;82.20;99183.31;5049173;28;20258;-81
2021/10/03 05:57:03;;;;;;;31.20;27.10;;;;;;;12.48;82.13;99169.38;5047805;28;20222;-81
2021/10/03 05:59:30;;;;;;;32.43;26.93;;;;;;;12.61;81.50;99174.44;5067261;23;20248;-81
2021/10/03 06:02:01;;;;;;;30.97;27.67;;;;;;;12.71;80.87;99174.59;5050412;28;20228;-82
2021/10/03 06:04:28;;;;;;;33.00;28.10;;;;;;;12.86;81.19;99170.53;5101111;28;20240;-81
2021/10/03 06:06:55;;;;;;;30.60;26.80;;;;;;;12.98;80.40;99171.25;5050313;28;20312;-81
2021/10/03 06:09:27;;;;;;;32.60;26.43;;;;;;;12.99;80.54;99167.50;5058229;23;20283;-81
2021/10/03 06:12:04;;;;;;;33.77;27.63;;;;;;;13.01;80.03;99171.59;5049332;28;20220;-80
2021/10/03 06:14:34;;;;;;;29.47;25.47;;;;;;;13.21;79.85;99173.75;5048464;28;20236;-81
2021/10/03 06:17:00;;;;;;;29.13;25.97;;;;;;;13.31;79.39;99173.91;5058133;23;20244;-81
2021/10/03 06:19:29;;;;;;;29.40;25.80;;;;;;;13.47;78.62;99183.84;5054433;28;20229;-81
2021/10/03 06:21:57;;;;;;;30.33;25.97;;;;;;;13.55;77.78;99174.50;5071066;28;20225;-79
2021/10/03 06:24:28;;;;;;;29.43;25.57;;;;;;;13.58;78.12;99172.13;5087365;28;20236;-78
2021/10/03 06:26:58;;;;;;;30.03;26.73;;;;;;;13.65;77.19;99180.03;5086556;28;20228;-78
2021/10/03 06:29:25;;;;;;;28.43;24.97;;;;;;;13.78;77.17;99185.03;5069817;28;20300;-79
2021/10/03 06:31:52;;;;;;;28.17;24.90;;;;;;;13.86;76.78;99170.28;5087101;28;20609;-79
2021/10/03 06:34:18;;;;;;;28.50;24.53;;;;;;;13.87;76.58;99163.84;5069282;28;20289;-79
2021/10/03 06:36:46;;;;;;;28.20;24.50;;;;;;;13.93;76.04;99187.91;5066870;28;20231;-80
2021/10/03 06:39:15;;;;;;;27.70;24.70;;;;;;;14.04;75.19;99178.06;5056072;28;20221;-80
2021/10/03 06:41:41;;;;;;;27.73;24.17;;;;;;;14.18;75.52;99181.16;5051622;28;20700;-81
2021/10/03 06:44:11;;;;;;;26.97;24.07;;;;;;;14.27;74.39;99190.44;5050482;28;20213;-84
2021/10/03 06:46:39;;;;;;;26.73;23.83;;;;;;;14.30;74.46;99189.91;5034103;28;20229;-85
2021/10/03 06:49:05;;;;;;;26.80;24.00;;;;;;;14.44;72.40;99193.84;5033331;28;20287;-79
2021/10/03 06:51:32;;;;;;;25.73;22.60;;;;;;;14.42;72.75;99188.72;5048780;28;20698;-85
2021/10/03 06:53:59;;;;;;;26.20;22.77;;;;;;;14.46;72.98;99189.03;5031274;28;20627;-85
2021/10/03 06:56:26;;;;;;;26.13;23.37;;;;;;;14.53;72.83;99197.72;5031691;28;20240;-90
2021/10/03 06:58:52;;;;;;;27.07;24.17;;;;;;;14.54;72.83;99199.34;5048333;28;20249;-85
2021/10/03 07:01:20;;;;;;;26.67;23.87;;;;;;;14.57;73.06;99201.53;5048707;28;20225;-79
2021/10/03 07:03:47;;;;;;;26.57;23.77;;;;;;;14.63;72.75;99203.19;5033934;28;20218;-90
2021/10/03 07:06:14;;;;;;;26.03;23.27;;;;;;;14.72;71.78;99203.53;5031106;28;20217;-90
2021/10/03 07:08:40;;;;;;;26.50;23.37;;;;;;;14.69;71.57;99201.38;5029216;28;20666;-80
2021/10/03 07:11:07;;;;;;;25.20;22.60;;;;;;;14.77;71.07;99198.19;5024016;28;20233;-87
2021/10/03 07:13:34;;;;;;;25.37;22.53;;;;;;;14.84;71.19;99205.00;5033921;28;20302;-80
2021/10/03 07:16:01;;;;;;;26.50;23.13;;;;;;;14.98;70.86;99195.38;5034257;28;20259;-84
2021/10/03 07:18:28;;;;;;;25.27;22.57;;;;;;;14.96;71.73;99207.53;5046491;28;20519;-81
2021/10/03 07:20:55;;;;;;;27.27;24.30;;;;;;;14.89;71.66;99190.72;5039724;28;20234;-83
2021/10/03 07:23:22;;;;;;;26.60;23.80;;;;;;;15.02;71.41;99198.41;5024864;28;20260;-81
2021/10/03 07:25:49;;;;;;;25.80;22.80;;;;;;;15.10;71.05;99205.19;5057885;28;20279;-89
2021/10/03 07:28:15;;;;;;;25.57;21.90;;;;;;;15.27;70.69;99203.16;5041082;28;20263;-85
2021/10/03 07:30:42;;;;;;;25.53;22.83;;;;;;;15.30;70.56;99197.25;5041481;28;20618;-81
2021/10/03 07:33:09;;;;;;;24.50;21.90;;;;;;;15.40;70.33;99206.19;5041671;28;20231;-81
2021/10/03 07:35:35;;;;;;;24.67;22.13;;;;;;;15.38;69.74;99185.94;5044167;28;20679;-86
2021/10/03 07:38:02;;;;;;;24.50;21.97;;;;;;;15.50;69.53;99201.94;5021493;28;20228;-89
2021/10/03 07:40:29;;;;;;;25.37;22.57;;;;;;;15.62;69.43;99208.81;5030213;28;20231;-80
2021/10/03 07:42:56;;;;;;;24.47;21.10;;;;;;;15.65;68.93;99196.66;5034081;28;20536;-82
2021/10/03 07:45:23;;;;;;;24.10;21.57;;;;;;;15.81;68.62;99204.56;5028520;28;20569;-89
2021/10/03 07:47:49;;;;;;;25.60;22.70;;;;;;;15.87;68.16;99202.69;5043909;28;20226;-85
2021/10/03 07:50:16;;;;;;;25.93;21.57;;;;;;;16.00;68.73;99212.22;5012368;28;20245;-87
2021/10/03 07:52:43;;;;;;;24.27;21.67;;;;;;;16.05;68.43;99202.19;5045468;28;20247;-87
2021/10/03 07:55:11;;;;;;;24.50;21.90;;;;;;;16.20;68.32;99209.56;5028064;28;20229;-86
2021/10/03 07:57:38;;;;;;;22.57;20.27;;;;;;;16.22;67.64;99199.28;5046651;28;20545;-82
2021/10/03 08:00:05;;;;;;;24.73;22.13;;;;;;;16.24;67.34;99195.22;5044565;28;20233;-87
2021/10/03 08:02:34;;;;;;;23.00;20.53;;;;;;;16.44;67.34;99199.88;5047454;28;20644;-88
2021/10/03 08:05:01;;;;;;;22.83;20.50;;;;;;;16.48;66.72;99190.16;5030010;28;20322;-87
2021/10/03 08:07:27;;;;;;;22.27;19.97;;;;;;;16.58;66.34;99183.97;5021942;28;20223;-82
2021/10/03 08:09:55;;;;;;;21.97;19.87;;;;;;;16.66;66.39;99189.66;5045011;28;20233;-84
2021/10/03 08:12:22;;;;;;;21.77;19.47;;;;;;;16.82;66.20;99184.25;5060980;28;20227;-85
2021/10/03 08:14:51;;;;;;;23.23;19.47;;;;;;;16.88;66.18;99188.59;5061881;28;20235;-83
2021/10/03 08:17:18;;;;;;;21.60;19.40;;;;;;;16.94;65.97;99182.06;5044358;28;20232;-91
2021/10/03 08:19:44;;;;;;;22.10;19.80;;;;;;;16.96;65.52;99171.81;5027984;28;20277;-88
2021/10/03 08:22:11;;;;;;;21.27;19.00;;;;;;;17.15;65.81;99197.22;5027443;28;20241;-86
2021/10/03 08:24:38;;;;;;;21.70;19.43;;;;;;;17.08;65.08;99181.25;5044590;28;20319;-83
2021/10/03 08:27:05;;;;;;;21.80;19.60;;;;;;;17.18;65.59;99181.25;5044594;28;20631;-82
2021/10/03 08:29:32;;;;;;;21.00;18.80;;;;;;;17.22;65.79;99183.44;5060662;28;20326;-88
2021/10/03 08:31:58;;;;;;;20.80;18.70;;;;;;;17.32;65.03;99176.06;5060353;28;20243;-90
2021/10/03 08:34:25;;;;;;;21.03;18.87;;;;;;;17.45;65.11;99175.50;5077344;28;20248;-86
2021/10/03 08:36:52;;;;;;;20.37;18.33;;;;;;;17.51;64.89;99168.97;5043315;28;20304;-85
2021/10/03 08:39:19;;;;;;;19.93;17.87;;;;;;;17.63;64.87;99173.31;5043162;28;20224;-85
2021/10/03 08:41:46;;;;;;;20.17;18.10;;;;;;;17.75;64.12;99163.78;5060330;28;20231;-87
2021/10/03 08:44:13;;;;;;;21.17;18.97;;;;;;;17.89;63.55;99153.97;5026876;28;20283;-80
2021/10/03 08:46:46;;;;;;;22.13;18.53;;;;;;;17.94;63.56;99150.41;5044570;28;20304;-85
2021/10/03 08:49:12;;;;;;;19.30;17.30;;;;;;;18.04;63.07;99151.19;5060862;28;20232;-86
2021/10/03 08:51:39;;;;;;;20.30;18.30;;;;;;;18.08;63.29;99156.84;5044145;28;20248;-85
2021/10/03 08:54:06;;;;;;;19.83;17.67;;;;;;;18.24;63.40;99152.16;5043750;28;20533;-82
2021/10/03 08:56:33;;;;;;;19.13;17.00;;;;;;;18.32;62.80;99138.00;5027224;28;20247;-83
2021/10/03 08:58:59;;;;;;;18.70;16.80;;;;;;;18.37;62.90;99146.91;5041262;28;20287;-81
2021/10/03 09:01:55;;;;;;;18.73;16.83;;;;;;;18.52;62.01;99143.28;5026239;28;20245;-85
2021/10/03 09:04:24;;;;;;;18.60;16.80;;;;;;;18.64;61.19;99145.66;5043407;28;20538;-84
2021/10/03 09:07:00;;;;;;;19.47;17.57;;;;;;;18.67;61.64;99139.66;5060072;28;20237;-85
2021/10/03 09:09:52;;;;;;;18.53;16.73;;;;;;;18.87;61.70;99144.91;5060463;28;20640;-86
2021/10/03 09:12:23;;;;;;;17.63;15.90;;;;;;;18.94;61.25;99133.72;5057732;28;20534;-81
2021/10/03 09:14:50;;;;;;;19.17;17.33;;;;;;;19.02;60.99;99135.81;5060291;28;20682;-81
2021/10/03 09:17:18;;;;;;;19.47;17.50;;;;;;;19.10;61.42;99136.00;5043185;28;20402;-82
2021/10/03 09:20:09;;;;;;;19.13;17.23;;;;;;;19.20;60.52;99121.50;5026370;28;20235;-83
2021/10/03 09:22:58;;;;;;;19.30;17.30;;;;;;;19.08;60.89;99127.34;5056825;28;20756;-81
2021/10/03 09:25:36;;;;;;;18.40;16.60;;;;;;;19.20;60.36;99118.78;5049983;28;20229;-81
2021/10/03 09:28:08;;;;;;;17.80;16.10;;;;;;;19.36;60.34;99120.25;5035147;28;20221;-86
2021/10/03 09:30:36;;;;;;;18.50;15.83;;;;;;;19.49;59.80;99116.88;5050901;28;20240;-80
2021/10/03 09:33:03;;;;;;;17.77;15.90;;;;;;;19.56;59.91;99105.63;5047031;28;20222;-81
2021/10/03 09:35:32;;;;;;;18.07;15.63;;;;;;;19.70;58.80;99107.34;5030734;28;20225;-84
2021/10/03 09:38:09;;;;;;;16.40;14.70;;;;;;;19.78;59.28;99108.63;5029744;28;20237;-88
2021/10/03 09:40:36;;;;;;;16.10;14.30;;;;;;;19.90;58.86;99100.03;5034543;28;20225;-81
2021/10/03 09:43:03;;;;;;;16.50;14.77;;;;;;;20.10;57.99;99100.56;5013713;28;20227;-86
2021/10/03 09:45:32;;;;;;;15.57;14.07;;;;;;;20.22;57.88;99098.19;5047521;28;20225;-87
2021/10/03 09:48:07;;;;;;;15.57;14.07;;;;;;;20.26;57.43;99098.41;5048782;28;20214;-86
2021/10/03 09:50:37;;;;;;;16.30;12.83;;;;;;;20.46;56.90;99089.94;5030991;28;20617;-85
2021/10/03 09:53:04;;;;;;;13.90;12.43;;;;;;;20.67;56.95;99101.28;5047317;28;20237;-85
2021/10/03 09:55:31;;;;;;;14.13;12.73;;;;;;;20.80;56.77;99097.81;5031688;28;20244;-85
2021/10/03 09:57:58;;;;;;;14.40;13.00;;;;;;;20.90;55.32;99083.22;5048858;28;20284;-82
2021/10/03 10:00:27;;;;;;;13.20;11.90;;;;;;;21.06;55.16;99087.25;5032016;28;20225;-82
2021/10/03 10:02:54;;;;;;;9.50;8.37;;;;;;;21.33;52.13;99078.31;5046526;28;20223;-82
2021/10/03 10:05:26;;;;;;;9.57;8.77;;;;;;;21.53;53.13;99065.09;5014078;28;20223;-85
2021/10/03 10:07:54;;;;;;;11.17;10.07;;;;;;;21.77;53.31;99072.22;5032815;28;20239;-81
2021/10/03 10:10:21;;;;;;;8.27;7.57;;;;;;;22.11;50.24;99061.66;5046791;28;21475;-86
2021/10/03 10:12:56;;;;;;;7.80;7.10;;;;;;;22.26;48.69;99060.47;5047446;28;20223;-86
2021/10/03 10:15:24;;;;;;;7.40;6.70;;;;;;;22.50;47.24;99065.63;5031011;28;20274;-84
2021/10/03 10:17:52;;;;;;;6.90;6.30;;;;;;;22.70;47.10;99060.50;5042856;28;20334;-81
2021/10/03 10:20:20;;;;;;;7.60;6.90;;;;;;;22.91;46.81;99049.03;5042906;28;20236;-84
2021/10/03 10:22:56;;;;;;;9.97;6.83;;;;;;;23.12;46.09;99041.88;5027237;28;20265;-86
2021/10/03 10:25:40;;;;;;;7.63;6.70;;;;;;;23.20;45.39;99039.19;5027200;28;20272;-85
2021/10/03 10:28:22;;;;;;;6.93;6.23;;;;;;;23.32;45.58;99043.25;5016890;28;20383;-83
2021/10/03 10:31:14;;;;;;;7.10;6.43;;;;;;;23.40;45.36;99042.44;5045485;28;20536;-82
2021/10/03 10:33:50;;;;;;;10.77;6.53;;;;;;;23.61;44.94;99030.63;5044383;28;20221;-84
2021/10/03 10:36:24;;;;;;;7.83;6.20;;;;;;;23.72;44.70;99036.59;5044401;28;20307;-84
2021/10/03 10:39:06;;;;;;;7.50;6.10;;;;;;;23.86;44.53;99031.78;5028389;28;20557;-83
2021/10/03 10:41:41;;;;;;;6.63;6.07;;;;;;;23.75;43.15;99016.78;5045662;28;20271;-85
2021/10/03 10:44:24;;;;;;;6.40;5.90;;;;;;;23.89;42.72;99033.09;5027727;28;20319;-85
2021/10/03 10:46:55;;;;;;;7.60;6.27;;;;;;;23.95;43.00;99029.03;5045504;28;20224;-84
2021/10/03 10:49:55;;;;;;;6.57;5.97;;;;;;;24.05;43.58;99018.59;5010187;28;20234;-81
2021/10/03 10:52:22;;;;;;;7.10;6.30;;;;;;;23.94;42.77;99030.97;5042043;28;20242;-83
2021/10/03 10:55:02;;;;;;;7.60;6.73;;;;;;;24.01;43.03;99036.78;5012123;28;20219;-85
2021/10/03 10:57:30;;;;;;;6.80;6.20;;;;;;;24.06;43.39;99033.88;5042219;28;20209;-83
2021/10/03 11:00:18;;;;;;;7.10;6.40;;;;;;;24.08;42.67;99045.28;5018570;28;20225;-85
2021/10/03 11:02:56;;;;;;;7.10;6.50;;;;;;;24.08;43.05;99037.09;5048695;28;20220;-84
2021/10/03 11:05:34;;;;;;;7.47;6.72;;;;;;;24.14;43.07;99044.00;5027559;28;20232;-84
2021/10/03 11:08:08;;;;;;;7.30;6.55;;;;;;;24.25;42.37;99036.31;5044137;28;20638;-85
2021/10/03 11:10:56;;;;;;;6.93;6.32;;;;;;;24.29;42.40;99031.00;5048115;28;20230;-81
2021/10/03 11:13:39;;;;;;;7.97;6.78;;;;;;;24.19;42.84;99021.19;5035517;28;20234;-82
2021/10/03 11:16:24;;;;;;;7.53;6.82;;;;;;;24.41;42.89;99018.25;5017307;28;20632;-86
2021/10/03 11:19:00;;;;;;;6.90;6.28;;;;;;;24.41;42.54;99014.69;5022029;28;20226;-85
2021/10/03 11:21:30;;;;;;;7.30;6.70;;;;;;;24.53;42.54;99012.13;4988965;28;20667;-86
2021/10/03 11:24:00;;;;;;;6.68;6.07;;;;;;;24.55;42.23;99012.56;5007661;28;20252;-84
2021/10/03 11:26:27;;;;;;;6.40;5.80;;;;;;;24.52;42.03;99008.56;4985866;28;20241;-88
2021/10/03 11:28:56;;;;;;;7.30;6.60;;;;;;;24.58;41.65;99006.47;5022802;28;20232;-87
2021/10/03 11:31:48;;;;;;;7.05;6.45;;;;;;;24.66;42.11;99013.84;5005861;28;20260;-83
2021/10/03 11:34:27;;;;;;;6.82;6.25;;;;;;;24.63;42.51;99006.28;5008669;28;20313;-83